createdAt,value
2019-04-22T00:01:40.449Z,83.30
2019-04-22T00:04:40.289Z,83.90
2019-04-22T00:36:23.295Z,85.00
2019-04-22T00:39:16.974Z,85.50
2019-04-22T00:47:50.722Z,86.90
2019-04-22T00:50:30.150Z,86.90
2019-04-22T00:53:11.962Z,86.20
2019-04-22T00:55:40.499Z,86.30
2019-04-22T00:58:16.757Z,85.70
2019-04-22T01:00:51.861Z,86.70
2019-04-22T01:03:19.987Z,86.60
2019-04-22T01:05:56.834Z,86.20
2019-04-22T01:08:30.686Z,86.60
2019-04-22T01:11:13.563Z,87.50
2019-04-22T01:13:38.698Z,88.30
2019-04-22T01:16:20.355Z,88.30
2019-04-22T01:18:50.557Z,87.40
2019-04-22T01:21:32.157Z,88.50
2019-04-22T01:23:58.039Z,87.50
2019-04-22T01:26:31.307Z,87.60
2019-04-22T01:29:00.926Z,88.90
2019-04-22T01:31:37.120Z,89.10
2019-04-22T01:34:25.969Z,89.90
2019-04-22T01:36:58.703Z,89.80
2019-04-22T01:39:43.590Z,89.30
2019-04-22T02:03:57.890Z,90.70
2019-04-22T02:09:09.418Z,89.70
2019-04-22T02:35:24.016Z,89.20
2019-04-22T02:41:12.865Z,89.70
2019-04-22T02:43:44.087Z,90.20
2019-04-22T02:57:39.831Z,89.50
2019-04-22T03:11:59.216Z,88.80
2019-04-22T03:14:33.806Z,88.20
2019-04-22T03:17:20.505Z,89.30
2019-04-22T03:23:05.755Z,88.30
2019-04-22T03:52:00.273Z,89.00
2019-04-22T03:59:56.741Z,89.00
2019-04-22T04:22:54.212Z,89.90
2019-04-22T04:25:42.747Z,90.00
2019-04-22T04:42:32.514Z,91.60
2019-04-22T04:50:41.477Z,91.90
2019-04-22T04:53:20.636Z,92.80
2019-04-22T04:56:10.871Z,92.90
2019-04-22T04:59:05.275Z,94.10
2019-04-22T05:35:28.151Z,94.80
2019-04-22T05:38:09.761Z,95.10
2019-04-22T05:40:28.916Z,95.00
2019-04-22T05:43:15.891Z,94.80
2019-04-22T05:45:43.272Z,95.40
2019-04-22T05:48:30.517Z,94.70
2019-04-22T05:50:59.314Z,94.60
2019-04-22T05:53:25.835Z,94.00
2019-04-22T05:56:09.987Z,94.70
2019-04-22T05:58:38.447Z,93.70
2019-04-22T06:03:53.110Z,93.50
2019-04-22T06:06:22.726Z,93.70
2019-04-22T06:08:57.828Z,94.00
2019-04-22T06:11:34.053Z,93.60
2019-04-22T06:14:04.505Z,91.80
2019-04-22T06:16:54.009Z,90.90
2019-04-22T06:19:21.170Z,91.60
2019-04-22T06:21:50.059Z,91.90
2019-04-22T06:24:28.600Z,91.10
2019-04-22T06:27:10.327Z,90.80
2019-04-22T06:29:37.013Z,90.80
2019-04-22T06:34:48.690Z,92.60
2019-04-22T06:37:55.522Z,92.40
2019-04-22T06:40:10.576Z,93.00
2019-04-22T06:42:42.484Z,90.50
2019-04-22T06:45:21.133Z,91.30
2019-04-22T06:50:30.244Z,90.80
2019-04-22T06:55:38.980Z,90.30
2019-04-22T06:58:10.613Z,90.20
2019-04-22T07:00:43.086Z,89.00
2019-04-22T07:05:52.387Z,87.70
2019-04-22T07:09:02.343Z,87.50
2019-04-22T07:10:58.338Z,85.70
2019-04-22T07:16:13.408Z,84.60
2019-04-22T07:18:54.473Z,83.60
2019-04-22T07:21:12.509Z,83.60
2019-04-22T07:24:03.007Z,83.40
2019-04-22T07:26:20.164Z,82.70
2019-04-22T07:29:06.235Z,82.30
2019-04-22T07:31:35.665Z,82.40
2019-04-22T07:34:13.388Z,82.60
2019-04-22T07:39:23.621Z,82.30
2019-04-22T07:41:56.044Z,82.20
2019-04-22T07:44:42.739Z,81.70
2019-04-22T07:47:18.400Z,83.10
2019-04-22T07:49:46.913Z,82.60
2019-04-22T07:52:23.129Z,83.10
2019-04-22T07:54:52.505Z,82.50
2019-04-22T07:57:27.819Z,80.70
2019-04-22T08:02:37.491Z,82.10
2019-04-22T08:05:16.876Z,82.10
2019-04-22T08:07:45.369Z,82.20
2019-04-22T08:12:50.786Z,84.60
2019-04-22T08:15:32.983Z,84.30
2019-04-22T08:18:02.423Z,82.90
2019-04-22T08:20:44.100Z,82.80
2019-04-22T08:23:22.667Z,82.80
2019-04-22T08:25:54.256Z,82.00
2019-04-22T08:31:05.599Z,85.90
2019-04-22T08:39:34.531Z,83.60
2019-04-22T08:42:22.020Z,86.70
2019-04-22T08:45:10.672Z,82.90
2019-04-22T08:47:47.965Z,82.20
2019-04-22T08:50:33.886Z,81.70
2019-04-22T08:53:41.509Z,78.40
2019-04-22T08:56:16.109Z,77.90
2019-04-22T08:58:56.783Z,76.80
2019-04-22T09:01:50.737Z,73.30
2019-04-22T09:04:16.142Z,73.10
2019-04-22T09:10:03.709Z,78.60
2019-04-22T09:12:57.793Z,75.90
2019-04-22T09:15:34.547Z,75.00
2019-04-22T09:24:04.969Z,73.90
2019-04-22T09:26:48.692Z,69.90
2019-04-22T09:32:29.665Z,61.90
2019-04-22T09:40:43.521Z,62.00
2019-04-22T09:43:32.063Z,62.10
2019-04-22T09:46:15.197Z,66.20
2019-04-22T09:54:57.003Z,59.00
2019-04-22T09:57:24.657Z,57.10
2019-04-22T10:00:15.218Z,57.50
2019-04-22T10:03:03.465Z,58.20
2019-04-22T10:05:52.460Z,56.10
2019-04-22T10:08:35.680Z,54.10
2019-04-22T10:11:31.586Z,53.00
2019-04-22T10:14:05.796Z,54.00
2019-04-22T10:16:51.836Z,55.30
2019-04-22T10:19:39.393Z,54.60
2019-04-22T10:22:27.531Z,59.40
2019-04-22T10:25:11.894Z,52.20
2019-04-22T10:28:01.862Z,56.20
2019-04-22T10:30:44.452Z,53.20
2019-04-22T10:33:22.442Z,52.90
2019-04-22T10:35:47.584Z,56.80
2019-04-22T10:41:26.319Z,53.80
2019-04-22T10:44:15.336Z,55.60
2019-04-22T10:46:58.034Z,55.70
2019-04-22T10:55:23.466Z,52.40
2019-04-22T10:58:12.863Z,58.90
2019-04-22T11:21:29.582Z,46.90
2019-04-22T11:50:17.771Z,51.80
2019-04-22T11:52:58.932Z,50.20
2019-04-22T11:55:48.953Z,51.80
2019-04-22T12:01:21.053Z,49.90
2019-04-22T12:04:02.216Z,46.80
2019-04-22T12:06:49.825Z,50.20
2019-04-22T12:09:31.090Z,49.30
2019-04-22T12:15:10.578Z,46.20
2019-04-22T12:17:52.990Z,48.30
2019-04-22T12:20:41.455Z,47.00
2019-04-22T12:23:25.072Z,46.20
2019-04-22T12:26:17.512Z,51.60
2019-04-22T12:28:55.097Z,47.30
2019-04-22T12:43:33.613Z,48.30
2019-04-22T12:49:14.260Z,46.20
2019-04-22T12:51:57.094Z,49.90
2019-04-22T12:57:46.419Z,45.80
2019-04-22T13:00:27.586Z,53.10
2019-04-22T13:03:15.896Z,48.40
2019-04-22T13:05:57.405Z,48.50
2019-04-22T13:08:45.723Z,54.70
2019-04-22T13:11:32.233Z,47.20
2019-04-22T13:14:19.073Z,48.20
2019-04-22T13:17:02.031Z,55.30
2019-04-22T13:19:51.896Z,50.20
2019-04-22T13:22:34.939Z,50.50
2019-04-22T13:28:15.458Z,49.80
2019-04-22T13:31:01.305Z,51.50
2019-04-22T13:36:40.127Z,49.80
2019-04-22T13:39:20.994Z,52.70
2019-04-22T13:42:12.509Z,52.10
2019-04-22T13:44:51.774Z,53.50
2019-04-22T13:51:08.133Z,49.20
2019-04-22T13:56:28.385Z,49.40
2019-04-22T14:07:37.017Z,51.60
2019-04-22T14:10:24.818Z,52.10
2019-04-22T14:13:05.986Z,50.40
2019-04-22T14:15:55.010Z,48.80
2019-04-22T14:18:37.028Z,49.80
2019-04-22T14:21:25.292Z,53.10
2019-04-22T14:24:07.041Z,52.60
2019-04-22T14:29:47.190Z,49.00
2019-04-22T14:32:36.520Z,49.80
2019-04-22T14:35:18.962Z,49.70
2019-04-22T14:38:08.441Z,53.60
2019-04-22T14:40:49.920Z,52.40
2019-04-22T14:44:23.815Z,50.40
2019-04-22T14:46:49.236Z,49.60
2019-04-22T14:49:30.939Z,48.90
2019-04-22T14:52:16.397Z,51.40
2019-04-22T14:54:54.315Z,49.30
2019-04-22T14:57:28.103Z,49.60
2019-04-22T15:00:18.079Z,49.50
2019-04-22T15:02:59.862Z,49.20
2019-04-22T15:08:39.242Z,48.40
2019-04-22T15:11:23.581Z,47.70
2019-04-22T15:14:11.699Z,50.40
2019-04-22T15:17:18.703Z,51.10
2019-04-22T15:20:07.924Z,47.80
2019-04-22T15:22:56.692Z,51.50
2019-04-22T15:25:38.617Z,48.70
2019-04-22T15:28:27.189Z,46.70
2019-04-22T15:31:09.379Z,50.10
2019-04-22T15:33:58.402Z,48.90
2019-04-22T15:36:40.044Z,49.40
2019-04-22T15:42:20.811Z,46.70
2019-04-22T15:45:32.757Z,44.90
2019-04-22T15:48:06.135Z,48.20
2019-04-22T15:50:50.676Z,46.70
2019-04-22T15:53:22.019Z,46.40
2019-04-22T15:55:52.492Z,47.90
2019-04-22T15:58:30.179Z,48.10
2019-04-22T16:01:10.815Z,47.50
2019-04-22T16:03:38.726Z,48.00
2019-04-22T16:06:08.527Z,49.20
2019-04-22T16:08:45.831Z,47.30
2019-04-22T16:11:15.979Z,46.80
2019-04-22T16:13:46.571Z,48.00
2019-04-22T16:16:24.681Z,48.50
2019-04-22T16:18:54.507Z,48.30
2019-04-22T16:21:41.673Z,50.20
2019-04-22T16:24:20.193Z,49.10
2019-04-22T16:27:22.709Z,47.70
2019-04-22T16:29:52.688Z,48.10
2019-04-22T16:32:23.579Z,48.40
2019-04-22T16:35:00.848Z,48.70
2019-04-22T16:37:30.968Z,49.30
2019-04-22T16:40:09.188Z,50.00
2019-04-22T16:42:45.879Z,50.30
2019-04-22T16:45:17.904Z,50.90
2019-04-22T16:47:47.666Z,50.20
2019-04-22T16:50:18.176Z,50.00
2019-04-22T16:53:02.048Z,50.20
2019-04-22T16:55:32.749Z,50.90
2019-04-22T16:58:03.132Z,52.10
2019-04-22T17:00:40.737Z,50.30
2019-04-22T17:03:28.963Z,49.20
2019-04-22T17:06:23.444Z,51.60
2019-04-22T17:08:55.077Z,50.90
2019-04-22T17:11:32.267Z,51.30
2019-04-22T17:14:03.471Z,51.50
2019-04-22T17:16:34.533Z,50.60
2019-04-22T17:19:11.498Z,51.30
2019-04-22T17:21:41.510Z,51.90
2019-04-22T17:24:17.696Z,51.40
2019-04-22T17:26:48.426Z,51.10
2019-04-22T17:53:08.278Z,54.30
2019-04-22T17:55:57.537Z,53.20
2019-04-22T18:01:28.177Z,52.00
2019-04-22T18:18:42.915Z,56.30
2019-04-22T18:41:48.498Z,57.70
2019-04-22T18:44:23.543Z,58.50
2019-04-22T18:59:02.415Z,58.10
2019-04-22T19:07:49.818Z,58.90
2019-04-22T19:24:41.687Z,59.00
2019-04-22T19:30:29.617Z,60.00
2019-04-22T19:36:11.067Z,59.80
2019-04-22T19:38:50.060Z,59.80
2019-04-22T19:41:42.111Z,61.20
2019-04-22T19:44:24.998Z,61.90
2019-04-22T19:55:43.640Z,61.30
2019-04-22T19:58:31.571Z,60.80
2019-04-22T20:07:31.767Z,61.80
2019-04-22T20:10:26.481Z,61.60
2019-04-22T20:13:07.658Z,63.10
2019-04-22T20:15:46.033Z,61.90
2019-04-22T20:18:54.800Z,62.40
2019-04-22T20:24:06.701Z,63.00
2019-04-22T20:27:15.222Z,63.10
2019-04-22T20:29:54.342Z,63.20
2019-04-22T20:32:40.282Z,62.80
2019-04-22T20:35:28.127Z,62.70
2019-04-22T20:38:16.825Z,62.60
2019-04-22T20:40:55.297Z,62.50
2019-04-22T20:44:04.670Z,62.20
2019-04-22T20:46:29.609Z,64.00
2019-04-22T20:52:16.437Z,62.00
2019-04-22T20:54:57.293Z,63.10
2019-04-22T20:57:40.539Z,61.60
2019-04-22T21:06:08.248Z,61.10
2019-04-22T21:11:47.953Z,61.00
2019-04-22T21:14:44.043Z,62.40
2019-04-22T21:17:27.679Z,63.30
2019-04-22T21:20:20.114Z,63.30
2019-04-22T21:22:58.794Z,63.10
2019-04-22T21:25:36.883Z,64.10
2019-04-22T21:28:31.333Z,62.10
2019-04-22T21:31:23.535Z,63.60
2019-04-22T21:33:59.743Z,62.10
2019-04-22T21:42:36.751Z,65.00
2019-04-22T21:45:07.245Z,63.00
2019-04-22T21:53:50.409Z,64.70
2019-04-22T21:56:47.356Z,64.00
2019-04-22T21:59:17.576Z,64.10
2019-04-22T22:02:12.395Z,62.60
2019-04-22T22:24:49.871Z,64.00
2019-04-22T22:27:37.188Z,65.00
2019-04-22T22:30:40.032Z,64.20
2019-04-22T22:44:18.296Z,66.20
2019-04-22T22:47:10.134Z,65.00
2019-04-22T22:50:03.289Z,64.40
2019-04-22T22:55:33.239Z,65.20
2019-04-22T22:58:24.595Z,64.70
2019-04-22T23:01:07.113Z,65.70
2019-04-22T23:09:19.280Z,66.30
2019-04-22T23:15:01.276Z,66.80
2019-04-22T23:17:33.151Z,65.40
2019-04-22T23:20:11.713Z,67.10
2019-04-22T23:23:26.784Z,68.00
2019-04-22T23:26:17.464Z,66.40
2019-04-22T23:31:44.265Z,68.30
2019-04-22T23:49:04.538Z,68.50
2019-04-22T23:52:13.054Z,67.60
